Time;durP1;ratioP1;P1;durP2;ratioP2;P2;SDS_P1;SDS_P2;PMS_P1;PMS_P2;Temp;Humidity;BMP_temperature;BMP_pressure;BME280_temperature;BME280_humidity;BME280_pressure;Samples;Min_cycle;Max_cycle;Signal;HPM_P1;HPM_P2
2021/09/10 00:02:23;;;;;;;5.95;1.80;;;;;;;23.73;58.22;101183.88;5004455;28;20402;-70
2021/09/10 00:04:51;;;;;;;6.20;1.88;;;;;;;23.69;58.56;101181.34;4994495;28;20042;-71
2021/09/10 00:07:18;;;;;;;4.78;1.80;;;;;;;23.63;58.56;101182.38;4997478;28;20410;-71
2021/09/10 00:09:46;;;;;;;4.28;1.70;;;;;;;23.55;58.67;101176.38;4995545;28;20046;-71
2021/09/10 00:12:13;;;;;;;7.60;1.75;;;;;;;23.51;58.78;101173.81;4996930;28;20050;-71
2021/09/10 00:14:40;;;;;;;4.70;1.60;;;;;;;23.51;58.64;101172.00;4995193;28;20057;-71
2021/09/10 00:17:08;;;;;;;3.97;1.70;;;;;;;23.52;58.48;101176.47;4995873;28;20066;-71
2021/09/10 00:19:37;;;;;;;4.80;1.80;;;;;;;23.52;58.58;101179.16;4993491;28;20517;-71
2021/09/10 00:22:05;;;;;;;7.10;1.90;;;;;;;23.51;58.54;101177.38;4997395;28;20064;-71
2021/09/10 00:24:32;;;;;;;3.92;1.90;;;;;;;23.51;58.51;101174.69;5000141;28;20042;-71
2021/09/10 00:27:00;;;;;;;3.88;1.70;;;;;;;23.55;58.32;101172.81;5001574;28;20046;-71
2021/09/10 00:29:28;;;;;;;6.47;1.83;;;;;;;23.55;58.35;101173.69;4996573;28;20150;-72
2021/09/10 00:31:56;;;;;;;9.65;1.80;;;;;;;23.55;58.40;101178.19;4997291;28;20041;-71
2021/09/10 00:34:23;;;;;;;5.97;1.95;;;;;;;23.43;58.58;101174.88;5003092;28;20038;-71
2021/09/10 00:36:52;;;;;;;5.18;2.08;;;;;;;23.44;58.57;101178.47;4991426;28;20054;-71
2021/09/10 00:39:21;;;;;;;4.88;1.90;;;;;;;23.42;58.58;101170.47;4998382;28;20096;-71
2021/09/10 00:41:49;;;;;;;4.38;1.80;;;;;;;23.37;58.95;101176.88;5001356;28;20056;-70
2021/09/10 00:44:16;;;;;;;5.38;1.92;;;;;;;23.42;58.90;101183.06;5002787;28;20540;-71
2021/09/10 00:46:44;;;;;;;6.30;2.53;;;;;;;23.48;58.90;101182.88;5000399;28;20053;-71
2021/09/10 00:49:11;;;;;;;3.05;2.00;;;;;;;23.54;58.64;101179.13;4998877;28;20041;-71
2021/09/10 00:51:40;;;;;;;5.15;2.75;;;;;;;23.55;58.82;101180.88;5001386;28;20460;-71
2021/09/10 00:54:09;;;;;;;8.18;3.00;;;;;;;23.56;58.96;101174.56;5001703;28;20129;-71
2021/09/10 00:56:37;;;;;;;8.27;2.88;;;;;;;23.53;59.41;101174.66;5003742;28;20032;-71
2021/09/10 00:59:05;;;;;;;8.57;3.28;;;;;;;23.53;59.64;101174.66;4998770;28;20041;-71
2021/09/10 01:01:33;;;;;;;5.80;2.95;;;;;;;23.54;59.89;101171.03;4995429;28;20046;-71
2021/09/10 01:04:03;;;;;;;9.82;4.32;;;;;;;23.52;60.30;101164.78;5003452;28;20141;-71
2021/09/10 01:06:31;;;;;;;8.68;4.38;;;;;;;23.50;60.36;101174.75;5002485;28;20380;-71
2021/09/10 01:08:59;;;;;;;9.98;4.68;;;;;;;23.50;60.45;101174.75;5000966;28;20038;-71
2021/09/10 01:11:29;;;;;;;8.15;4.00;;;;;;;23.47;60.67;101174.81;4998136;28;20112;-71
2021/09/10 01:13:57;;;;;;;10.18;4.25;;;;;;;23.49;60.20;101173.00;4999471;28;20048;-71
2021/09/10 01:16:24;;;;;;;5.60;4.00;;;;;;;23.50;59.97;101174.75;5003796;28;20037;-71
2021/09/10 01:18:52;;;;;;;9.18;4.00;;;;;;;23.50;59.75;101181.00;5002856;28;20054;-71
2021/09/10 01:21:19;;;;;;;7.90;3.80;;;;;;;23.50;59.76;101170.22;5004338;28;20048;-70
2021/09/10 01:23:46;;;;;;;8.43;4.30;;;;;;;23.49;59.73;101167.59;5005541;28;20758;-71
2021/09/10 01:26:15;;;;;;;6.00;3.47;;;;;;;23.46;59.77;101165.84;5007441;28;20097;-71
2021/09/10 01:28:43;;;;;;;5.68;3.75;;;;;;;23.44;59.77;101165.00;5001912;28;20532;-71
2021/09/10 01:31:10;;;;;;;7.30;3.60;;;;;;;23.40;59.93;101175.00;5004115;28;20050;-71
2021/09/10 01:33:38;;;;;;;8.20;4.03;;;;;;;23.40;60.03;101169.63;5004443;28;20041;-71
2021/09/10 01:36:08;;;;;;;7.82;3.30;;;;;;;23.40;60.16;101168.72;4996610;28;20049;-71
2021/09/10 01:38:35;;;;;;;8.68;3.58;;;;;;;23.41;60.04;101165.09;5005787;28;20038;-71
2021/09/10 01:41:02;;;;;;;6.95;2.83;;;;;;;23.42;59.95;101166.88;4993144;28;20046;-71
2021/09/10 01:43:32;;;;;;;9.07;2.65;;;;;;;23.42;59.85;101161.50;4998446;28;20041;-71
2021/09/10 01:45:59;;;;;;;9.93;2.75;;;;;;;23.40;59.77;101168.72;5001406;28;20046;-71
2021/09/10 01:48:27;;;;;;;9.15;2.72;;;;;;;23.39;59.61;101156.19;5002783;28;20409;-71
2021/09/10 01:50:54;;;;;;;8.07;2.70;;;;;;;23.37;59.61;101158.91;5005928;28;20443;-71
2021/09/10 01:53:22;;;;;;;7.32;3.15;;;;;;;23.37;59.59;101160.72;5001957;28;20050;-71
2021/09/10 01:55:50;;;;;;;5.80;2.70;;;;;;;23.35;59.77;101159.91;4997671;28;20056;-70
2021/09/10 01:58:17;;;;;;;8.77;2.90;;;;;;;23.31;59.90;101156.41;5000875;28;20038;-71
2021/09/10 02:00:46;;;;;;;11.13;2.67;;;;;;;23.28;60.23;101161.91;4995278;28;20050;-71
2021/09/10 02:03:14;;;;;;;8.82;2.60;;;;;;;23.26;60.08;101150.28;5000397;28;20039;-71
2021/09/10 02:05:41;;;;;;;7.00;2.85;;;;;;;23.25;60.25;101164.69;4995053;28;20782;-71
2021/09/10 02:08:08;;;;;;;10.98;3.08;;;;;;;23.23;60.24;101162.97;5006773;28;20052;-70
2021/09/10 02:10:36;;;;;;;8.00;2.83;;;;;;;23.21;60.15;101152.25;4999019;28;20062;-71
2021/09/10 02:13:05;;;;;;;8.63;2.72;;;;;;;23.19;60.21;101161.28;5006983;28;20063;-71
2021/09/10 02:15:34;;;;;;;6.50;2.60;;;;;;;23.15;60.27;101167.72;4999299;28;20049;-72
2021/09/10 02:18:03;;;;;;;8.60;2.80;;;;;;;23.15;60.25;101165.00;5003077;28;20051;-71
2021/09/10 02:20:31;;;;;;;4.43;2.28;;;;;;;23.12;60.13;101170.47;5005492;28;20466;-72
2021/09/10 02:22:59;;;;;;;11.15;2.95;;;;;;;23.07;60.19;101167.94;5004683;28;20793;-71
2021/09/10 02:25:26;;;;;;;5.55;2.20;;;;;;;23.03;60.08;101166.25;4995080;28;20042;-71
2021/09/10 02:27:54;;;;;;;6.22;2.30;;;;;;;22.99;60.22;101165.47;4996569;28;20560;-71
2021/09/10 02:30:22;;;;;;;6.00;2.45;;;;;;;22.99;60.09;101168.16;4997786;28;20042;-71
2021/09/10 02:32:49;;;;;;;4.63;2.28;;;;;;;22.99;60.11;101172.66;4998592;28;20046;-70
2021/09/10 02:35:18;;;;;;;8.32;2.33;;;;;;;23.00;60.06;101172.63;5004599;28;20128;-71
2021/09/10 02:37:46;;;;;;;6.47;2.15;;;;;;;23.01;60.02;101173.50;4997126;28;20045;-71
2021/09/10 02:40:14;;;;;;;4.28;2.30;;;;;;;23.02;60.10;101176.16;4996100;28;20054;-71
2021/09/10 02:42:41;;;;;;;7.88;2.33;;;;;;;22.98;60.25;101174.47;4995728;28;20050;-71
2021/09/10 02:45:09;;;;;;;8.95;2.28;;;;;;;22.98;60.23;101179.84;4995668;28;20135;-71
2021/09/10 02:47:37;;;;;;;7.43;2.30;;;;;;;22.92;60.60;101177.31;4995263;28;20453;-71
2021/09/10 02:50:05;;;;;;;6.78;2.40;;;;;;;22.89;60.65;101172.03;4998541;28;20050;-71
2021/09/10 02:52:36;;;;;;;5.40;2.20;;;;;;;22.90;60.77;101179.22;5003502;28;20050;-71
2021/09/10 02:55:04;;;;;;;6.65;2.33;;;;;;;22.87;60.73;101179.28;5003312;28;20509;-71
2021/09/10 02:57:32;;;;;;;5.40;2.20;;;;;;;22.87;60.71;101168.50;4997208;28;20038;-71
2021/09/10 02:59:59;;;;;;;5.38;2.72;;;;;;;22.86;60.75;101180.19;4999351;28;20034;-71
2021/09/10 03:02:27;;;;;;;10.50;2.20;;;;;;;22.86;60.69;101173.94;5003857;28;20050;-71
2021/09/10 03:04:55;;;;;;;6.22;2.60;;;;;;;22.85;60.67;101181.13;4992944;28;20049;-71
2021/09/10 03:07:22;;;;;;;6.63;2.13;;;;;;;22.83;60.74;101180.31;5002048;28;20518;-70
2021/09/10 03:09:51;;;;;;;7.25;2.65;;;;;;;22.80;60.99;101183.06;5004599;28;20157;-71
2021/09/10 03:12:18;;;;;;;4.18;2.15;;;;;;;22.77;61.00;101185.88;4996376;28;20050;-70
2021/09/10 03:14:46;;;;;;;5.28;2.40;;;;;;;22.76;61.28;101193.97;4998587;28;20054;-71
2021/09/10 03:17:14;;;;;;;5.20;2.53;;;;;;;22.78;61.29;101192.97;4999666;28;20037;-71
2021/09/10 03:19:41;;;;;;;6.57;2.55;;;;;;;22.78;61.42;101202.88;5002735;28;20049;-71
2021/09/10 03:22:09;;;;;;;4.43;2.28;;;;;;;22.80;61.43;101198.34;5001069;28;20052;-70
2021/09/10 03:24:36;;;;;;;10.80;2.58;;;;;;;22.80;61.68;101198.34;4990966;28;20046;-71
2021/09/10 03:27:06;;;;;;;8.05;2.40;;;;;;;22.82;61.70;101199.19;4995869;28;20061;-71
2021/09/10 03:29:34;;;;;;;8.32;2.53;;;;;;;22.82;61.75;101204.56;4989322;28;20042;-71
2021/09/10 03:32:01;;;;;;;5.93;2.58;;;;;;;22.82;61.95;101205.47;4996081;28;20084;-71
2021/09/10 03:34:30;;;;;;;10.77;2.70;;;;;;;22.81;62.02;101205.50;5000528;28;20046;-71
2021/09/10 03:36:58;;;;;;;7.32;2.65;;;;;;;22.82;62.10;101201.88;4997518;28;20509;-71
2021/09/10 03:39:29;;;;;;;6.47;2.20;;;;;;;22.82;62.01;101208.16;4993618;28;20406;-71
2021/09/10 03:41:56;;;;;;;6.03;2.28;;;;;;;22.82;62.02;101210.84;5003158;28;20114;-71
2021/09/10 03:44:25;;;;;;;7.53;2.45;;;;;;;22.87;62.00;101208.91;4999482;28;20512;-71
2021/09/10 03:46:53;;;;;;;4.88;2.10;;;;;;;22.86;62.20;101204.44;4995970;28;20054;-71
2021/09/10 03:49:20;;;;;;;8.18;2.42;;;;;;;22.84;62.21;101200.03;4999121;28;20053;-70
2021/09/10 03:51:48;;;;;;;4.72;2.15;;;;;;;22.87;62.32;101202.63;5003911;28;20046;-71
2021/09/10 03:54:16;;;;;;;7.20;2.28;;;;;;;22.92;62.35;101206.06;4999051;28;20041;-71
2021/09/10 03:56:43;;;;;;;2.92;2.00;;;;;;;22.92;62.44;101209.66;4991793;28;20517;-71
2021/09/10 03:59:11;;;;;;;8.82;2.38;;;;;;;22.93;62.44;101206.03;5002669;28;20050;-70
2021/09/10 04:01:39;;;;;;;4.47;2.35;;;;;;;22.97;62.23;101207.69;5003359;28;20050;-71
2021/09/10 04:04:07;;;;;;;5.72;2.10;;;;;;;22.98;62.04;101214.84;5003865;28;20065;-71
2021/09/10 04:06:35;;;;;;;4.70;1.92;;;;;;;22.99;61.84;101207.66;4994875;28;20473;-71
2021/09/10 04:09:02;;;;;;;7.53;2.25;;;;;;;23.00;61.83;101213.00;4996818;28;20132;-71
2021/09/10 04:11:35;;;;;;;6.30;2.00;;;;;;;23.00;61.67;101215.69;4998200;28;20053;-71
2021/09/10 04:14:06;;;;;;;3.78;2.10;;;;;;;23.03;61.58;101206.66;4995595;28;20058;-71
2021/09/10 04:16:35;;;;;;;6.45;2.35;;;;;;;23.05;61.34;101213.75;4995394;28;20049;-71
2021/09/10 04:19:04;;;;;;;7.50;2.50;;;;;;;23.09;61.48;101219.06;4994355;28;20034;-71
2021/09/10 04:21:32;;;;;;;5.85;1.90;;;;;;;23.07;61.55;101221.81;4994414;28;20491;-71
2021/09/10 04:24:00;;;;;;;3.05;2.20;;;;;;;23.03;61.90;101218.31;4998455;28;20490;-71
2021/09/10 04:26:29;;;;;;;5.18;2.17;;;;;;;23.07;61.86;101219.09;4994308;28;20043;-71
2021/09/10 04:28:56;;;;;;;6.32;2.30;;;;;;;23.10;61.90;101205.56;4991904;28;20141;-71
2021/09/10 04:31:23;;;;;;;8.57;2.80;;;;;;;23.19;61.82;101216.06;4997314;28;20038;-71
2021/09/10 04:33:51;;;;;;;5.68;2.47;;;;;;;23.25;62.09;101213.19;4998361;28;20104;-70
2021/09/10 04:36:21;;;;;;;4.57;2.30;;;;;;;23.28;62.20;101207.72;4998120;28;20117;-71
2021/09/10 04:38:49;;;;;;;5.50;2.28;;;;;;;23.28;62.14;101214.91;4995582;28;20494;-71
2021/09/10 04:41:16;;;;;;;6.78;2.40;;;;;;;23.32;62.00;101216.56;4990178;28;20421;-71
2021/09/10 04:43:44;;;;;;;5.80;2.60;;;;;;;23.40;61.89;101219.94;4985021;28;20053;-71
2021/09/10 04:46:11;;;;;;;6.70;2.03;;;;;;;23.59;61.51;101223.88;4975301;28;20057;-71
2021/09/10 04:48:38;;;;;;;7.95;2.88;;;;;;;23.66;60.84;101220.06;4988174;28;20038;-71
2021/09/10 04:51:06;;;;;;;5.05;2.03;;;;;;;23.76;60.67;101215.28;4991090;28;20042;-71
2021/09/10 04:53:36;;;;;;;5.40;2.40;;;;;;;23.78;60.42;101222.38;4991104;28;20042;-71
2021/09/10 04:56:03;;;;;;;3.88;1.75;;;;;;;23.86;60.11;101221.25;4990476;28;20104;-71
2021/09/10 04:58:31;;;;;;;6.78;2.15;;;;;;;24.04;59.91;101223.34;4996477;28;20129;-71
2021/09/10 05:00:58;;;;;;;9.13;2.30;;;;;;;24.24;59.71;101229.00;5001789;28;20030;-71
2021/09/10 05:03:26;;;;;;;3.85;1.83;;;;;;;24.42;59.62;101222.97;4999953;28;20121;-71
2021/09/10 05:05:53;;;;;;;5.95;1.88;;;;;;;24.73;59.24;101230.91;5002560;28;20059;-72
2021/09/10 05:08:20;;;;;;;5.75;1.63;;;;;;;24.86;58.83;101226.84;4994701;28;20038;-71
2021/09/10 05:10:49;;;;;;;6.72;2.13;;;;;;;24.87;58.68;101234.00;4994679;28;20498;-71
2021/09/10 05:13:17;;;;;;;4.13;1.70;;;;;;;24.81;58.52;101225.25;4995149;28;20034;-72
2021/09/10 05:15:44;;;;;;;8.57;2.38;;;;;;;24.84;58.96;101225.13;4991183;28;20393;-71
2021/09/10 05:18:11;;;;;;;4.22;1.70;;;;;;;24.93;58.86;101224.84;4994661;28;20041;-72
2021/09/10 05:20:40;;;;;;;4.10;1.70;;;;;;;25.08;58.22;101224.25;5002014;28;20035;-72
2021/09/10 05:23:07;;;;;;;4.72;1.63;;;;;;;25.32;57.99;101234.16;4994758;28;20042;-72
2021/09/10 05:25:35;;;;;;;3.38;1.40;;;;;;;25.70;57.61;101231.81;4992609;28;20053;-72
2021/09/10 05:28:03;;;;;;;3.63;1.73;;;;;;;25.98;56.76;101228.91;4995940;28;20034;-72
2021/09/10 05:30:33;;;;;;;4.93;1.80;;;;;;;26.15;56.55;101232.66;4994333;28;20157;-71
2021/09/10 05:33:00;;;;;;;6.57;2.13;;;;;;;26.08;55.60;101220.34;4993231;28;20039;-72
2021/09/10 05:35:28;;;;;;;3.60;1.65;;;;;;;26.28;55.13;101226.78;4993789;28;20046;-71
2021/09/10 05:37:55;;;;;;;2.63;1.38;;;;;;;26.48;54.34;101227.69;4994727;28;20038;-72
2021/09/10 05:40:23;;;;;;;4.68;1.45;;;;;;;26.43;53.93;101234.25;4994087;28;20410;-72
2021/09/10 05:42:50;;;;;;;4.00;1.50;;;;;;;26.34;53.59;101229.22;4993616;28;20035;-70
2021/09/10 05:45:19;;;;;;;6.55;1.52;;;;;;;26.02;53.18;101239.53;5002187;28;20054;-73
2021/09/10 05:47:46;;;;;;;3.47;1.60;;;;;;;25.84;53.75;101234.88;5002474;28;20038;-72
2021/09/10 05:50:14;;;;;;;6.07;1.77;;;;;;;26.03;53.57;101241.31;5005374;28;20045;-72
2021/09/10 05:52:41;;;;;;;3.92;1.38;;;;;;;26.40;52.91;101234.38;5006020;28;20125;-72
2021/09/10 05:55:09;;;;;;;2.92;1.50;;;;;;;26.66;52.54;101249.50;5004711;28;20445;-73
2021/09/10 05:57:37;;;;;;;5.22;1.50;;;;;;;26.92;51.72;101242.03;4996908;28;20402;-72
2021/09/10 06:00:05;;;;;;;3.25;0.98;;;;;;;27.30;50.98;101242.16;4993670;28;20514;-72
2021/09/10 06:02:34;;;;;;;3.05;1.40;;;;;;;27.63;50.05;101250.59;4993866;28;20062;-72
2021/09/10 06:05:01;;;;;;;3.78;1.30;;;;;;;27.79;49.69;101254.31;4993677;28;20494;-72
2021/09/10 06:07:29;;;;;;;3.17;1.15;;;;;;;27.91;49.20;101251.00;4992932;28;20403;-73
2021/09/10 06:09:56;;;;;;;4.53;1.75;;;;;;;28.13;48.48;101245.41;4993685;28;20053;-72
2021/09/10 06:12:24;;;;;;;2.05;1.17;;;;;;;28.05;48.36;101236.75;4993541;28;20043;-72
2021/09/10 06:14:52;;;;;;;3.17;1.17;;;;;;;28.06;48.39;101252.09;4993189;28;20042;-72
2021/09/10 06:17:19;;;;;;;2.35;1.25;;;;;;;28.23;47.17;101245.84;4994003;28;20038;-72
2021/09/10 06:19:48;;;;;;;2.70;1.50;;;;;;;28.29;46.44;101251.84;5001695;28;20049;-73
2021/09/10 06:22:15;;;;;;;3.85;1.10;;;;;;;27.88;46.84;101250.28;5011033;28;20069;-72
2021/09/10 06:24:43;;;;;;;2.60;1.00;;;;;;;27.84;47.05;101243.22;5013607;28;20504;-72
2021/09/10 06:27:11;;;;;;;3.55;0.93;;;;;;;28.14;46.86;101258.97;5012313;28;20511;-72
2021/09/10 06:29:38;;;;;;;4.53;1.38;;;;;;;28.01;46.78;101257.75;5012486;28;20038;-72
2021/09/10 06:32:06;;;;;;;2.67;1.38;;;;;;;28.01;47.04;101257.75;5012891;28;20049;-73
2021/09/10 06:34:33;;;;;;;6.10;1.17;;;;;;;27.77;47.33;101256.22;5012618;28;20510;-73
2021/09/10 06:37:02;;;;;;;3.28;1.15;;;;;;;27.97;47.24;101253.41;5012481;28;20046;-73
2021/09/10 06:39:30;;;;;;;5.03;1.33;;;;;;;27.99;46.92;101254.22;5011980;28;20110;-73
2021/09/10 06:41:58;;;;;;;5.20;1.30;;;;;;;27.63;47.42;101256.91;5010462;28;20034;-72
2021/09/10 06:44:25;;;;;;;5.13;1.38;;;;;;;27.46;47.61;101267.59;5013192;28;20092;-73
2021/09/10 06:46:53;;;;;;;5.90;1.38;;;;;;;27.23;47.94;101263.25;5011915;28;20038;-72
2021/09/10 06:49:20;;;;;;;3.90;1.48;;;;;;;27.21;48.32;101266.97;5012283;28;20057;-72
2021/09/10 06:51:47;;;;;;;2.95;1.40;;;;;;;27.08;48.64;101265.75;5009253;28;20092;-73
2021/09/10 06:54:16;;;;;;;2.75;1.30;;;;;;;27.28;48.49;101271.16;5002058;28;20043;-73
2021/09/10 06:56:44;;;;;;;3.83;1.30;;;;;;;27.93;47.58;101278.97;4996145;28;20046;-74
2021/09/10 06:59:11;;;;;;;1.45;1.00;;;;;;;28.25;47.11;101277.44;4991643;28;20096;-74
2021/09/10 07:01:39;;;;;;;1.95;1.10;;;;;;;28.31;47.05;101284.38;5001034;28;20042;-74
2021/09/10 07:04:06;;;;;;;6.35;1.60;;;;;;;28.71;46.02;101278.69;5008826;28;20042;-75
2021/09/10 07:06:33;;;;;;;2.05;1.13;;;;;;;29.21;45.62;101275.22;5012655;28;20048;-74
2021/09/10 07:09:01;;;;;;;2.80;1.25;;;;;;;29.52;44.65;101279.88;5001324;28;20409;-75
2021/09/10 07:11:32;;;;;;;3.88;1.10;;;;;;;29.86;44.24;101277.06;4993504;28;20334;-74
2021/09/10 07:13:59;;;;;;;3.63;1.35;;;;;;;29.93;44.10;101264.84;4991890;28;20039;-74
2021/09/10 07:16:27;;;;;;;1.60;1.00;;;;;;;30.02;43.48;101261.63;4992006;28;20525;-75
2021/09/10 07:18:54;;;;;;;2.47;1.20;;;;;;;29.61;44.10;101279.38;4998604;28;20042;-74
2021/09/10 07:21:21;;;;;;;4.10;1.35;;;;;;;29.88;43.82;101274.22;4995706;28;20406;-74
2021/09/10 07:23:49;;;;;;;3.13;1.50;;;;;;;30.03;43.26;101276.13;4991578;28;20038;-75
2021/09/10 07:26:16;;;;;;;5.45;1.20;;;;;;;30.00;42.99;101276.28;4995698;28;20402;-75
2021/09/10 07:28:45;;;;;;;5.45;1.10;;;;;;;29.93;42.94;101280.34;4994692;28;20398;-75
2021/09/10 07:31:12;;;;;;;1.95;1.00;;;;;;;30.21;42.34;101280.50;4990584;28;20589;-74
2021/09/10 07:33:42;;;;;;;3.28;1.10;;;;;;;30.69;42.05;101276.78;4995316;28;20053;-75
2021/09/10 07:36:10;;;;;;;3.08;0.85;;;;;;;31.13;41.87;101273.22;4996295;28;20477;-75
2021/09/10 07:38:38;;;;;;;2.20;1.20;;;;;;;31.07;41.72;101281.78;4990537;28;20045;-74
2021/09/10 07:41:05;;;;;;;1.70;0.93;;;;;;;31.17;41.12;101277.53;4989300;28;20046;-74
2021/09/10 07:43:33;;;;;;;2.40;0.88;;;;;;;31.44;40.94;101280.38;4996518;28;20038;-75
2021/09/10 07:46:02;;;;;;;3.38;0.93;;;;;;;31.62;40.43;101280.13;4996151;28;20073;-75
2021/09/10 07:48:29;;;;;;;3.22;0.80;;;;;;;31.52;40.35;101278.91;4988811;28;20095;-75
2021/09/10 07:50:57;;;;;;;3.17;1.10;;;;;;;31.70;40.49;101282.38;4993856;28;20046;-75
2021/09/10 07:53:25;;;;;;;2.08;0.80;;;;;;;31.91;40.00;101288.25;4990652;28;20060;-74
2021/09/10 07:55:52;;;;;;;2.78;0.80;;;;;;;31.66;40.15;101286.25;4989382;28;20517;-74
2021/09/10 07:58:20;;;;;;;1.55;0.90;;;;;;;31.69;39.83;101282.44;4993356;28;20045;-74
2021/09/10 08:00:47;;;;;;;3.50;1.10;;;;;;;31.51;39.49;101279.88;4987540;28;20058;-75
2021/09/10 08:03:16;;;;;;;3.42;0.90;;;;;;;31.66;39.35;101268.00;4990986;28;20045;-75
2021/09/10 08:05:44;;;;;;;2.28;0.90;;;;;;;31.20;39.91;101280.91;4990785;28;20058;-75
2021/09/10 08:08:11;;;;;;;2.55;1.15;;;;;;;31.33;40.18;101270.13;4990373;28;20057;-75
2021/09/10 08:10:39;;;;;;;3.88;1.55;;;;;;;31.20;39.95;101271.84;4989977;28;20045;-74
2021/09/10 08:13:07;;;;;;;2.45;1.10;;;;;;;30.75;40.09;101276.41;4990967;28;20042;-75
2021/09/10 08:15:34;;;;;;;5.13;1.38;;;;;;;30.87;40.02;101270.19;4990280;28;20038;-75
2021/09/10 08:18:01;;;;;;;4.30;0.90;;;;;;;31.36;39.99;101275.41;4990862;28;20053;-74
2021/09/10 08:20:30;;;;;;;5.13;1.10;;;;;;;31.74;39.47;101266.63;4991210;28;20414;-74
2021/09/10 08:22:58;;;;;;;2.30;1.10;;;;;;;31.77;39.08;101274.66;4989884;28;20569;-75
2021/09/10 08:25:26;;;;;;;2.67;1.10;;;;;;;31.33;38.94;101282.88;4990391;28;20046;-74
2021/09/10 08:27:53;;;;;;;3.58;1.48;;;;;;;30.91;39.50;101286.41;4989578;28;20053;-74
2021/09/10 08:30:21;;;;;;;2.00;1.33;;;;;;;30.74;40.21;101285.56;4990997;28;20391;-75
2021/09/10 08:32:49;;;;;;;4.13;1.40;;;;;;;31.06;40.38;101286.34;4979590;28;20054;-73
2021/09/10 08:35:17;;;;;;;4.07;1.17;;;;;;;31.23;40.31;101285.31;4993829;28;20092;-73
2021/09/10 08:37:45;;;;;;;3.63;1.10;;;;;;;31.01;40.16;101288.47;4991704;28;20042;-72
2021/09/10 08:40:13;;;;;;;2.75;1.30;;;;;;;30.92;40.71;101288.16;4991979;28;20483;-72
2021/09/10 08:42:41;;;;;;;3.35;1.35;;;;;;;30.67;41.21;101283.28;4991360;28;20125;-72
2021/09/10 08:45:09;;;;;;;2.63;1.48;;;;;;;30.43;41.16;101283.75;4991002;28;20031;-72
2021/09/10 08:47:39;;;;;;;2.60;1.80;;;;;;;30.15;41.52;101285.41;4991051;28;20054;-72
2021/09/10 08:50:07;;;;;;;4.32;1.60;;;;;;;29.83;42.14;101279.06;4990592;28;20494;-73
2021/09/10 08:52:35;;;;;;;4.25;1.55;;;;;;;29.75;42.25;101273.16;4989491;28;20046;-75
2021/09/10 08:55:06;;;;;;;2.22;1.20;;;;;;;29.76;42.55;101275.81;4990326;28;20031;-74
2021/09/10 08:57:35;;;;;;;2.40;1.67;;;;;;;30.00;42.28;101279.88;4995029;28;20038;-73
2021/09/10 09:00:05;;;;;;;3.22;1.65;;;;;;;30.09;42.26;101279.38;4991828;28;20062;-74
2021/09/10 09:02:33;;;;;;;4.03;1.92;;;;;;;30.34;42.57;101272.50;4994481;28;20035;-72
2021/09/10 09:05:00;;;;;;;6.00;1.70;;;;;;;30.22;42.67;101276.81;5002502;28;20042;-73
2021/09/10 09:07:29;;;;;;;2.83;1.52;;;;;;;29.87;42.94;101275.19;4998168;28;20461;-72
2021/09/10 09:09:59;;;;;;;6.43;1.60;;;;;;;30.08;43.12;101280.34;4998756;28;20046;-73
2021/09/10 09:12:30;;;;;;;5.30;1.50;;;;;;;30.47;42.76;101281.69;4994803;28;20045;-73
2021/09/10 09:14:58;;;;;;;5.85;2.00;;;;;;;30.53;43.03;101277.75;4995222;28;20030;-73
2021/09/10 09:17:28;;;;;;;4.70;1.90;;;;;;;30.34;43.33;101275.22;5005227;28;20492;-73
2021/09/10 09:20:17;;;;;;;4.57;1.90;;;;;;;30.13;43.75;101287.38;4997773;28;20097;-73
2021/09/10 09:22:58;;;;;;;4.65;1.80;;;;;;;30.08;44.08;101284.91;4994627;28;20383;-73
2021/09/10 09:25:27;;;;;;;2.65;1.70;;;;;;;30.12;43.58;101282.91;4994698;28;20585;-73
2021/09/10 09:27:57;;;;;;;3.92;1.80;;;;;;;30.10;43.44;101286.56;4994929;28;20050;-75
2021/09/10 09:30:38;;;;;;;7.63;2.45;;;;;;;30.23;43.71;101283.16;4997449;28;20050;-73
2021/09/10 09:33:06;;;;;;;7.32;2.15;;;;;;;30.55;43.71;101279.44;4980161;28;20549;-74
2021/09/10 09:35:34;;;;;;;6.78;3.35;;;;;;;30.85;43.02;101288.50;4994433;28;20054;-73
2021/09/10 09:38:13;;;;;;;6.75;2.83;;;;;;;30.96;43.09;101289.72;4994595;28;20038;-74
2021/09/10 09:40:40;;;;;;;5.68;2.35;;;;;;;31.09;42.84;101279.84;4994307;28;20034;-74
2021/09/10 09:43:19;;;;;;;4.97;1.88;;;;;;;31.00;42.26;101280.34;4994034;28;20057;-74
2021/09/10 09:45:48;;;;;;;3.05;1.58;;;;;;;30.89;42.60;101290.09;4992077;28;20038;-74
2021/09/10 09:48:16;;;;;;;6.05;1.60;;;;;;;31.01;41.98;101284.84;4995149;28;20046;-73
2021/09/10 09:50:45;;;;;;;3.70;1.67;;;;;;;30.94;41.74;101286.19;4996499;28;20117;-73
2021/09/10 09:53:13;;;;;;;2.83;1.80;;;;;;;30.92;41.71;101285.44;4992133;28;20046;-73
2021/09/10 09:55:42;;;;;;;5.15;1.98;;;;;;;30.88;41.97;101282.88;4986157;28;20501;-74
2021/09/10 09:58:09;;;;;;;3.42;1.77;;;;;;;30.59;42.08;101286.44;4996046;28;20045;-74
2021/09/10 10:00:41;;;;;;;3.38;1.63;;;;;;;30.48;42.22;101281.63;4990553;28;20441;-74
2021/09/10 10:03:09;;;;;;;6.07;1.90;;;;;;;30.43;41.77;101281.03;4987145;28;20045;-75
2021/09/10 10:05:51;;;;;;;4.05;2.00;;;;;;;30.38;42.03;101293.16;4994610;28;20069;-75
2021/09/10 10:08:23;;;;;;;4.43;1.85;;;;;;;30.36;42.12;101281.47;4994597;28;20046;-75
2021/09/10 10:10:54;;;;;;;4.07;1.80;;;;;;;30.30;42.17;101290.88;5012133;28;20046;-74
2021/09/10 10:13:28;;;;;;;4.45;1.95;;;;;;;30.23;42.04;101286.75;5010664;28;20034;-72
2021/09/10 10:15:58;;;;;;;5.50;2.70;;;;;;;30.07;42.46;101294.03;5025375;28;20374;-73
2021/09/10 10:18:41;;;;;;;5.82;2.22;;;;;;;29.89;43.07;101290.47;5010676;28;20124;-73
2021/09/10 10:21:10;;;;;;;3.60;2.00;;;;;;;30.05;43.19;101290.53;5010487;28;20580;-74
2021/09/10 10:23:55;;;;;;;8.98;2.78;;;;;;;30.40;42.73;101277.56;5006599;28;20042;-74
2021/09/10 10:26:36;;;;;;;4.13;1.88;;;;;;;30.52;42.25;101276.91;5003547;28;20046;-74
2021/09/10 10:29:07;;;;;;;6.40;2.38;;;;;;;30.59;42.13;101288.34;5003605;28;20129;-73
2021/09/10 10:32:01;;;;;;;3.78;1.95;;;;;;;30.55;41.93;101290.34;5007698;28;20824;-72
2021/09/10 10:34:30;;;;;;;9.60;2.72;;;;;;;30.54;42.63;101283.13;5007224;28;20068;-72
2021/09/10 10:36:58;;;;;;;4.75;2.00;;;;;;;30.60;42.22;101284.59;4978325;28;20054;-72
2021/09/10 10:39:30;;;;;;;3.55;2.13;;;;;;;30.62;42.09;101290.84;4962700;28;20043;-72
2021/09/10 10:42:01;;;;;;;3.92;1.98;;;;;;;30.68;42.43;101293.22;4944279;28;20095;-72
2021/09/10 10:44:58;;;;;;;6.75;2.10;;;;;;;30.59;42.46;101300.09;4951912;28;20062;-73
2021/09/10 10:47:35;;;;;;;6.43;2.00;;;;;;;30.37;41.91;101303.19;4950576;28;20054;-71
2021/09/10 10:50:03;;;;;;;4.53;1.92;;;;;;;30.58;42.01;101286.56;4952905;28;20055;-72
2021/09/10 10:52:35;;;;;;;6.28;2.00;;;;;;;30.83;41.10;101298.66;4951775;28;20031;-72
2021/09/10 10:55:25;;;;;;;4.05;1.90;;;;;;;30.70;40.60;101292.16;4945360;28;20039;-73
2021/09/10 10:57:54;;;;;;;2.88;1.90;;;;;;;30.40;41.49;101274.84;4949373;28;20055;-72
2021/09/10 11:00:47;;;;;;;3.63;1.88;;;;;;;30.16;42.53;101281.75;4952247;28;20050;-72
2021/09/10 11:03:35;;;;;;;4.77;2.10;;;;;;;29.84;42.75;101287.16;4930671;28;20137;-72
2021/09/10 11:06:38;;;;;;;5.97;1.80;;;;;;;29.82;42.80;101277.28;4925861;28;20318;-71
2021/09/10 11:09:12;;;;;;;2.80;1.80;;;;;;;30.19;42.02;101277.00;4928145;28;20052;-72
2021/09/10 11:11:39;;;;;;;;;;;;;;;30.25;41.74;101267.59;4932016;28;20543;-71
2021/09/10 11:14:10;;;;;;;3.58;2.05;;;;;;;30.39;41.42;101268.53;4927060;28;19930;-71
2021/09/10 11:16:38;;;;;;;4.05;1.88;;;;;;;30.46;41.73;101260.84;4925443;28;20090;-72
2021/09/10 11:19:09;;;;;;;6.05;2.10;;;;;;;30.84;41.91;101264.94;4929727;28;20095;-72
2021/09/10 11:21:36;;;;;;;4.82;2.30;;;;;;;30.99;41.69;101263.09;4930124;28;20048;-72
2021/09/10 11:24:10;;;;;;;3.63;1.75;;;;;;;31.04;41.66;101268.31;4929767;28;20732;-71
2021/09/10 11:26:38;;;;;;;3.47;1.60;;;;;;;31.27;41.21;101263.19;4954651;28;20051;-72
2021/09/10 11:29:13;;;;;;;5.47;1.70;;;;;;;31.49;41.71;101257.25;4945862;28;20035;-73
2021/09/10 11:31:43;;;;;;;3.60;1.80;;;;;;;31.83;40.94;101263.31;4953822;28;20051;-72
2021/09/10 11:34:32;;;;;;;3.95;1.80;;;;;;;31.91;40.59;101264.56;4949596;28;20039;-73